»·PEaware :: N5826T KBUR-L52

N5826T :: KBUR-L52

FLIGHT INFORMATION

Flight Status: Arrived
Operator: Privately registered:
United States
More flights under this callsign
Pilot: Daniel J. (32090)
Aircraft: CESSNA 172 SKYHAWK
(C172)
More flights by this aircraft type
Origin: KBUR Bob Hope-Burbank
United States
Destination: L52 Oceano Co
United States
More flights between these airports :: More routes between these airports
Route: +
File this flight plan on PilotEdge
Remarks:
Altitude:
(Current/Filed)
0ft
Speed:
(Current/Filed)
0kts
Departed: 15-Nov-20 08:59 AM
Arrived: 15-Nov-20 10:24 AM
Distance/Time
Traveled:
124nm/1:25
Distance/Time
To Go:
Arrived

Flight Plot

Page will automatically refresh every two minutes.

Flight plan parsing failed; only flown route is shown


Map Options




Map Legend


Flown Route
Filed Route
Departure Airport
Arrival Airport
Navaid (VOR, NDB)
Fix

Horizontal Profiles

Position Reports

Time Latitude Longitude Heading Altitude Ground
Speed
15-Nov-20 08:43 34.200211 -118.358868 280 725ft 0kts
15-Nov-20 08:43 34.200211 -118.358868 280 725ft 0kts
15-Nov-20 08:44 34.200211 -118.358868 280 725ft 0kts
15-Nov-20 08:45 34.200211 -118.358868 280 725ft 0kts
15-Nov-20 08:46 34.200211 -118.358868 280 725ft 0kts
15-Nov-20 08:47 34.200211 -118.358868 280 725ft 0kts
15-Nov-20 08:48 34.200211 -118.358868 280 725ft 0kts
15-Nov-20 08:49 34.200211 -118.358868 280 725ft 0kts
15-Nov-20 08:50 34.199895 -118.359033 156 724ft 13kts
15-Nov-20 08:51 34.202490 -118.358899 347 736ft 23kts
15-Nov-20 08:52 34.207759 -118.360353 347 761ft 17kts
15-Nov-20 08:53 34.211555 -118.361235 29 777ft 0kts
15-Nov-20 08:54 34.211555 -118.361235 29 777ft 0kts
15-Nov-20 08:55 34.211555 -118.361235 29 777ft 0kts
15-Nov-20 08:56 34.211555 -118.361235 29 777ft 0kts
15-Nov-20 08:57 34.211555 -118.361235 29 777ft 0kts
15-Nov-20 08:58 34.200477 -118.357210 166 945ft 91kts
15-Nov-20 08:59 34.174089 -118.348570 168 1679ft 97kts
15-Nov-20 09:00 34.186088 -118.342835 349 2138ft 90kts
15-Nov-20 09:01 34.209974 -118.354022 307 2328ft 102kts
15-Nov-20 09:02 34.219403 -118.384631 283 2979ft 97kts
15-Nov-20 09:03 34.224877 -118.416580 283 3796ft 95kts
15-Nov-20 09:04 34.229780 -118.447399 283 4631ft 93kts
15-Nov-20 09:05 34.234421 -118.478448 283 5387ft 94kts
15-Nov-20 09:06 34.238823 -118.509615 283 6084ft 94kts
15-Nov-20 09:07 34.241226 -118.542845 267 6484ft 113kts
15-Nov-20 09:08 34.238816 -118.580631 272 6481ft 112kts
15-Nov-20 09:09 34.237518 -118.618224 272 6479ft 112kts
15-Nov-20 09:10 34.236193 -118.655990 271 6478ft 112kts
15-Nov-20 09:11 34.234851 -118.693530 271 6477ft 112kts
15-Nov-20 09:12 34.233483 -118.731290 271 6476ft 112kts
15-Nov-20 09:13 34.232092 -118.769089 271 6474ft 112kts
15-Nov-20 09:14 34.230680 -118.806867 271 6473ft 112kts
15-Nov-20 09:15 34.230456 -118.844489 275 6473ft 111kts
15-Nov-20 09:16 34.231402 -118.882070 275 6473ft 111kts
15-Nov-20 09:17 34.232450 -118.919525 275 6473ft 111kts
15-Nov-20 09:18 34.233600 -118.956911 275 6473ft 111kts
15-Nov-20 09:19 34.234857 -118.994318 276 6473ft 111kts
15-Nov-20 09:20 34.236214 -119.031603 276 6473ft 111kts
15-Nov-20 09:21 34.237622 -119.069066 276 6473ft 111kts
15-Nov-20 09:22 34.238867 -119.106294 276 6473ft 111kts
15-Nov-20 09:23 34.239967 -119.143931 276 6463ft 111kts
15-Nov-20 09:24 34.240882 -119.181402 276 6463ft 111kts
15-Nov-20 09:25 34.241622 -119.218919 276 6463ft 111kts
15-Nov-20 09:26 34.242860 -119.256435 276 6468ft 111kts
15-Nov-20 09:27 34.243394 -119.294020 285 6458ft 111kts
15-Nov-20 09:28 34.251484 -119.329443 290 6482ft 109kts
15-Nov-20 09:29 34.259771 -119.364890 290 6482ft 109kts
15-Nov-20 09:30 34.268096 -119.400302 290 6482ft 109kts
15-Nov-20 09:31 34.283152 -119.431147 311 6482ft 106kts
15-Nov-20 09:32 34.301450 -119.459451 311 6482ft 106kts
15-Nov-20 09:33 34.319800 -119.487506 312 6484ft 106kts
15-Nov-20 09:34 34.329556 -119.521381 277 6481ft 109kts
15-Nov-20 09:35 34.331514 -119.558514 277 6481ft 110kts
15-Nov-20 09:36 34.333467 -119.595797 277 6481ft 110kts
15-Nov-20 09:37 34.335500 -119.633049 277 6481ft 110kts
15-Nov-20 09:38 34.337607 -119.670306 277 6482ft 110kts
15-Nov-20 09:39 34.339786 -119.707602 277 6482ft 110kts
15-Nov-20 09:40 34.342033 -119.744880 277 6482ft 110kts
15-Nov-20 09:41 34.344331 -119.782080 277 6482ft 110kts
15-Nov-20 09:42 34.346641 -119.819265 277 6482ft 110kts
15-Nov-20 09:43 34.351320 -119.856054 282 6482ft 110kts
15-Nov-20 09:44 34.356350 -119.892630 282 6482ft 110kts
15-Nov-20 09:45 34.367879 -119.926222 298 6482ft 108kts
15-Nov-20 09:46 34.381153 -119.959066 298 6481ft 108kts
15-Nov-20 09:47 34.394433 -119.991911 298 6481ft 108kts
15-Nov-20 09:48 34.407701 -120.024721 298 6487ft 108kts
15-Nov-20 09:49 34.421021 -120.057639 298 6496ft 108kts
15-Nov-20 09:50 34.434258 -120.090326 298 6504ft 108kts
15-Nov-20 09:51 34.447605 -120.123147 301 6510ft 108kts
15-Nov-20 09:52 34.475524 -120.130296 356 6515ft 106kts
15-Nov-20 09:53 34.505169 -120.131745 356 6519ft 106kts
15-Nov-20 09:54 34.534832 -120.133197 356 6523ft 106kts
15-Nov-20 09:55 34.564535 -120.134653 356 6527ft 106kts
15-Nov-20 09:56 34.594317 -120.136112 356 6527ft 107kts
15-Nov-20 09:57 34.623987 -120.137561 356 6527ft 107kts
15-Nov-20 09:58 34.654038 -120.139031 356 6499ft 108kts
15-Nov-20 09:59 34.683923 -120.140492 356 6499ft 107kts
15-Nov-20 10:00 34.713560 -120.141936 356 6499ft 107kts
15-Nov-20 10:01 34.743390 -120.143384 356 6499ft 107kts
15-Nov-20 10:02 34.772388 -120.144639 358 6454ft 92kts
15-Nov-20 10:03 34.789371 -120.145196 354 6214ft 61kts
15-Nov-20 10:04 34.811119 -120.147167 354 6609ft 90kts
15-Nov-20 10:05 34.823046 -120.172664 295 6575ft 65kts
15-Nov-20 10:06 34.829250 -120.192543 296 6121ft 81kts
15-Nov-20 10:07 34.843913 -120.220151 312 5975ft 107kts
15-Nov-20 10:08 34.867521 -120.244899 321 5375ft 113kts
15-Nov-20 10:09 34.891887 -120.269718 321 4771ft 114kts
15-Nov-20 10:10 34.916408 -120.294654 321 4166ft 115kts
15-Nov-20 10:11 34.941020 -120.319636 321 3561ft 115kts
15-Nov-20 10:12 34.966532 -120.343860 323 2790ft 120kts
15-Nov-20 10:13 34.991358 -120.366307 331 2417ft 102kts
15-Nov-20 10:14 35.016526 -120.383357 322 2420ft 102kts
15-Nov-20 10:16 35.036724 -120.406504 313 2594ft 99kts
15-Nov-20 10:17 35.054484 -120.435951 307 2477ft 110kts
15-Nov-20 10:18 35.061850 -120.472295 277 2125ft 112kts
15-Nov-20 10:19 35.060950 -120.510345 272 1606ft 113kts
15-Nov-20 10:20 35.067314 -120.546622 295 1086ft 105kts
15-Nov-20 10:21 35.076664 -120.573887 295 864ft 79kts
15-Nov-20 10:22 35.087301 -120.595785 302 581ft 64kts
15-Nov-20 10:23 35.097109 -120.614048 301 150ft 63kts
15-Nov-20 10:24 35.102830 -120.623896 323 18ft 0kts
15-Nov-20 10:25 35.103208 -120.624200 28 18ft 0kts

Navigation Log

Ident Type
Flight plan parsing failed, navigation log unavailable